Time,TemperatureF,DewpointF,PressureIn,WindDirection,WindDirectionDegrees,WindSpeedMPH,WindSpeedGustMPH,Humidity,HourlyPrecipIn,Conditions,Clouds,dailyrainin,SoftwareType,DateUTC
2013-02-19 00:00:00,46.2,34.3,29.98,SW,222,1.0,5.0,63,0.00,SCT,,0.00,WeatherDisplay:10.37,2013-02-19 08:00:00,
2013-02-19 00:03:00,46.1,34.2,29.98,SSW,196,2.3,2.3,63,0.00,SCT,,0.00,WeatherDisplay:10.37,2013-02-19 08:03:00,
2013-02-19 00:05:00,46.1,34.2,29.98,SSW,199,1.0,8.0,63,0.00,SCT,,0.00,WeatherDisplay:10.37,2013-02-19 08:05:00,
2013-02-19 00:08:00,46.0,34.1,29.98,SSE,167,5.8,5.8,63,0.00,SCT,,0.00,WeatherDisplay:10.37,2013-02-19 08:08:00,
2013-02-19 00:10:00,46.0,34.1,29.98,WSW,257,3.5,3.5,63,0.00,SCT,,0.00,WeatherDisplay:10.37,2013-02-19 08:10:00,
2013-02-19 00:11:00,46.0,34.1,29.98,SSW,206,4.6,4.6,63,0.00,SCT,,0.00,WeatherDisplay:10.37,2013-02-19 08:11:00,
2013-02-19 00:14:00,45.9,34.0,29.98,South,191,8.1,8.1,63,0.00,SCT,,0.00,WeatherDisplay:10.37,2013-02-19 08:14:00,
2013-02-19 00:15:00,45.9,34.0,29.98,WSW,252,1.2,1.2,63,0.00,SCT,,0.00,WeatherDisplay:10.37,2013-02-19 08:15:00,
2013-02-19 00:16:00,45.9,34.0,29.98,SW,236,1.2,1.5,63,0.00,SCT,,0.00,WeatherDisplay:10.37,2013-02-19 08:16:00,
2013-02-19 00:17:00,45.9,34.0,29.98,WSW,237,1.2,1.5,63,0.00,SCT,,0.00,WeatherDisplay:10.37,2013-02-19 08:17:00,
2013-02-19 00:20:00,45.9,33.6,29.98,SW,230,3.5,3.5,62,0.00,SCT,,0.00,WeatherDisplay:10.37,2013-02-19 08:20:00,
2013-02-19 00:21:00,45.9,34.0,29.98,SW,217,8.1,8.1,63,0.00,SCT,,0.00,WeatherDisplay:10.37,2013-02-19 08:21:00,
2013-02-19 00:22:00,45.9,34.0,29.98,SW,216,8.1,8.1,63,0.00,SCT,,0.00,WeatherDisplay:10.37,2013-02-19 08:22:00,
2013-02-19 00:26:00,45.9,33.6,29.98,SSE,149,3.5,3.5,62,0.00,SCT,,0.00,WeatherDisplay:10.37,2013-02-19 08:26:00,
2013-02-19 00:27:00,45.9,33.6,29.98,North,11,3.5,3.5,62,0.00,SCT,,0.00,WeatherDisplay:10.37,2013-02-19 08:27:00,
2013-02-19 00:30:00,45.9,33.6,29.98,SW,218,2.0,7.0,62,0.00,SCT,,0.00,WeatherDisplay:10.37,2013-02-19 08:30:00,
2013-02-19 00:31:00,45.9,33.6,29.98,WSW,238,2.0,2.0,62,0.00,SCT,,0.00,WeatherDisplay:10.37,2013-02-19 08:31:00,
2013-02-19 00:32:00,45.9,33.6,29.98,SW,223,6.0,6.0,62,0.00,SCT,,0.00,WeatherDisplay:10.37,2013-02-19 08:32:00,
2013-02-19 00:37:00,45.9,33.6,29.98,West,281,4.6,4.6,62,0.00,SCT,,0.00,WeatherDisplay:10.37,2013-02-19 08:37:00,
2013-02-19 00:38:00,45.9,33.6,29.98,West,260,3.5,3.5,62,0.00,SCT,,0.00,WeatherDisplay:10.37,2013-02-19 08:38:00,
2013-02-19 00:40:00,45.9,33.6,29.98,South,186,3.5,3.5,62,0.00,SCT,,0.00,WeatherDisplay:10.37,2013-02-19 08:40:00,
2013-02-19 00:43:00,45.9,33.6,29.98,SW,218,5.8,5.8,62,0.00,SCT,,0.00,WeatherDisplay:10.37,2013-02-19 08:43:00,
2013-02-19 00:45:00,46.0,33.7,29.98,SW,228,6.9,6.9,62,0.00,SCT,,0.00,WeatherDisplay:10.37,2013-02-19 08:45:00,
2013-02-19 00:49:00,46.0,33.7,29.98,West,261,4.0,4.0,62,0.00,SCT,,0.00,WeatherDisplay:10.37,2013-02-19 08:49:00,
2013-02-19 00:50:00,46.0,33.7,29.98,WSW,239,9.2,9.2,62,0.00,SCT,,0.00,WeatherDisplay:10.37,2013-02-19 08:50:00,
2013-02-19 00:54:00,45.9,33.6,29.98,WSW,251,3.5,3.5,62,0.00,SCT,,0.00,WeatherDisplay:10.37,2013-02-19 08:54:00,
2013-02-19 00:56:00,46.0,34.1,29.98,WSW,247,1.2,0.0,63,0.00,SCT,,0.00,WeatherDisplay:10.37,2013-02-19 08:56:00,
2013-02-19 00:59:00,46.0,34.1,29.98,West,275,4.0,4.0,63,0.00,SCT,,0.00,WeatherDisplay:10.37,2013-02-19 08:59:00,
2013-02-19 01:00:00,46.0,34.1,29.98,WSW,238,1.0,4.0,63,0.00,SCT,,0.00,WeatherDisplay:10.37,2013-02-19 09:00:00,
2013-02-19 01:01:00,46.0,34.1,29.98,West,273,1.2,0.0,63,0.00,SCT,,0.00,WeatherDisplay:10.37,2013-02-19 09:01:00,
2013-02-19 01:04:00,46.0,34.1,29.98,WSW,254,3.5,3.5,63,0.00,SCT,,0.00,WeatherDisplay:10.37,2013-02-19 09:04:00,
2013-02-19 01:05:00,46.0,34.1,29.98,WSW,254,1.2,1.2,63,0.00,SCT,,0.00,WeatherDisplay:10.37,2013-02-19 09:05:00,
2013-02-19 01:06:00,46.0,34.1,29.98,WSW,254,0.0,0.0,63,0.00,SCT,,0.00,WeatherDisplay:10.37,2013-02-19 09:06:00,
2013-02-19 01:09:00,45.9,34.0,29.98,South,178,3.5,3.5,63,0.00,SCT,,0.00,WeatherDisplay:10.37,2013-02-19 09:09:00,
2013-02-19 01:10:00,45.9,34.0,29.98,South,184,3.5,3.5,63,0.00,SCT,,0.00,WeatherDisplay:10.37,2013-02-19 09:10:00,
2013-02-19 01:11:00,45.9,34.0,29.99,WSW,247,3.5,3.5,63,0.00,SCT,,0.00,WeatherDisplay:10.37,2013-02-19 09:11:00,
2013-02-19 01:15:00,45.9,34.0,29.98,SSW,198,0.0,0.0,63,0.00,SCT,,0.00,WeatherDisplay:10.37,2013-02-19 09:15:00,
2013-02-19 01:16:00,45.9,34.0,29.99,SSW,198,0.0,0.0,63,0.00,SCT,,0.00,WeatherDisplay:10.37,2013-02-19 09:16:00,
2013-02-19 01:18:00,45.9,34.0,29.98,SSW,197,3.5,3.5,63,0.00,SCT,,0.00,WeatherDisplay:10.37,2013-02-19 09:18:00,
2013-02-19 01:20:00,45.9,34.0,29.99,West,268,2.3,2.3,63,0.00,SCT,,0.00,WeatherDisplay:10.37,2013-02-19 09:20:00,
2013-02-19 01:21:00,45.9,34.0,29.98,NW,310,3.5,3.5,63,0.00,SCT,,0.00,WeatherDisplay:10.37,2013-02-19 09:21:00,
2013-02-19 01:23:00,45.9,34.0,29.99,WSW,258,3.5,0.0,63,0.00,SCT,,0.00,WeatherDisplay:10.37,2013-02-19 09:23:00,
2013-02-19 01:25:00,45.9,34.0,29.98,WSW,258,1.2,1.2,63,0.00,SCT,,0.00,WeatherDisplay:10.37,2013-02-19 09:25:00,
2013-02-19 01:26:00,45.9,34.0,29.98,WSW,254,3.5,3.5,63,0.00,SCT,,0.00,WeatherDisplay:10.37,2013-02-19 09:26:00,
2013-02-19 01:29:00,45.9,34.0,29.98,WSW,254,0.0,0.0,63,0.00,SCT,,0.00,WeatherDisplay:10.37,2013-02-19 09:29:00,
2013-02-19 01:30:00,45.9,33.6,29.98,WSW,254,0.0,0.0,62,0.00,SCT,,0.00,WeatherDisplay:10.37,2013-02-19 09:30:00,
2013-02-19 01:31:00,45.9,34.0,29.98,WSW,254,0.0,0.0,63,0.00,SCT,,0.00,WeatherDisplay:10.37,2013-02-19 09:31:00,
2013-02-19 01:34:00,45.9,34.0,29.98,South,186,0.0,0.6,63,0.00,SCT,,0.00,WeatherDisplay:10.37,2013-02-19 09:34:00,
2013-02-19 01:36:00,45.9,34.0,29.98,WSW,257,3.5,3.5,63,0.00,SCT,,0.00,WeatherDisplay:10.37,2013-02-19 09:36:00,
2013-02-19 01:39:00,45.9,34.0,29.98,SSW,210,1.2,0.0,63,0.00,SCT,,0.00,WeatherDisplay:10.37,2013-02-19 09:39:00,
2013-02-19 01:40:00,46.0,34.1,29.98,West,278,1.2,0.0,63,0.00,SCT,,0.00,WeatherDisplay:10.37,2013-02-19 09:40:00,
2013-02-19 01:41:00,46.0,34.1,29.99,West,272,0.0,0.0,63,0.00,SCT,,0.00,WeatherDisplay:10.37,2013-02-19 09:41:00,
2013-02-19 01:44:00,46.0,34.1,29.99,West,272,1.2,0.0,63,0.00,SCT,,0.00,WeatherDisplay:10.37,2013-02-19 09:44:00,
2013-02-19 01:45:00,46.0,34.5,29.99,West,272,1.2,0.0,64,0.00,SCT,,0.00,WeatherDisplay:10.37,2013-02-19 09:45:00,
2013-02-19 01:49:00,46.0,34.1,29.98,West,263,1.2,1.2,63,0.00,SCT,,0.00,WeatherDisplay:10.37,2013-02-19 09:49:00,
2013-02-19 01:50:00,46.0,34.1,29.98,West,271,0.0,1.0,63,0.00,SCT,,0.00,WeatherDisplay:10.37,2013-02-19 09:50:00,
2013-02-19 01:51:00,46.0,34.5,29.98,West,263,0.0,0.0,64,0.00,SCT,,0.00,WeatherDisplay:10.37,2013-02-19 09:51:00,
2013-02-19 01:54:00,46.0,34.5,29.98,West,260,0.0,0.0,64,0.00,SCT,,0.00,WeatherDisplay:10.37,2013-02-19 09:54:00,
2013-02-19 01:55:00,46.0,34.5,29.98,WSW,246,1.2,1.2,64,0.00,SCT,,0.00,WeatherDisplay:10.37,2013-02-19 09:55:00,
2013-02-19 01:56:00,46.0,34.5,29.98,SSW,195,1.2,1.2,64,0.00,SCT,,0.00,WeatherDisplay:10.37,2013-02-19 09:56:00,
2013-02-19 01:58:00,46.0,34.5,29.98,East,86,2.3,2.3,64,0.00,SCT,,0.00,WeatherDisplay:10.37,2013-02-19 09:58:00,
2013-02-19 02:00:00,46.0,34.5,29.98,ENE,72,1.2,0.0,64,0.00,SCT,,0.00,WeatherDisplay:10.37,2013-02-19 10:00:00,
2013-02-19 02:01:00,46.0,34.9,29.98,SW,222,1.0,1.4,65,0.00,SCT,,0.00,WeatherDisplay:10.37,2013-02-19 10:01:00,
2013-02-19 02:03:00,46.0,34.9,29.98,WSW,251,3.5,3.5,65,0.00,SCT,,0.00,WeatherDisplay:10.37,2013-02-19 10:03:00,
2013-02-19 02:06:00,46.0,34.9,29.98,SSW,199,5.0,5.0,65,0.00,SCT,,0.00,WeatherDisplay:10.37,2013-02-19 10:06:00,
2013-02-19 02:08:00,46.0,34.9,29.98,SSW,202,4.6,4.6,65,0.00,SCT,,0.00,WeatherDisplay:10.37,2013-02-19 10:08:00,
2013-02-19 02:11:00,46.0,34.9,29.98,South,179,3.5,3.5,65,0.00,SCT,,0.00,WeatherDisplay:10.37,2013-02-19 10:11:00,
2013-02-19 02:13:00,45.9,34.8,29.97,WNW,294,1.2,1.2,65,0.00,SCT,,0.00,WeatherDisplay:10.37,2013-02-19 10:13:00,
2013-02-19 02:14:00,45.9,34.8,29.98,West,267,0.0,0.0,65,0.00,SCT,,0.00,WeatherDisplay:10.37,2013-02-19 10:14:00,
2013-02-19 02:16:00,45.9,34.8,29.97,West,275,1.2,1.2,65,0.00,SCT,,0.00,WeatherDisplay:10.37,2013-02-19 10:16:00,
2013-02-19 02:18:00,45.9,35.2,29.97,SW,215,3.5,3.5,66,0.00,SCT,,0.00,WeatherDisplay:10.37,2013-02-19 10:18:00,
2013-02-19 02:19:00,45.9,34.8,29.97,SW,215,1.2,1.2,65,0.00,SCT,,0.00,WeatherDisplay:10.37,2013-02-19 10:19:00,
2013-02-19 02:21:00,45.9,34.8,29.97,SW,215,0.0,0.0,65,0.00,SCT,,0.00,WeatherDisplay:10.37,2013-02-19 10:21:00,
2013-02-19 02:22:00,45.9,35.2,29.97,SW,215,1.0,0.0,66,0.00,SCT,,0.00,WeatherDisplay:10.37,2013-02-19 10:22:00,
2013-02-19 02:24:00,45.9,35.2,29.97,SW,215,0.0,0.0,66,0.00,SCT,,0.00,WeatherDisplay:10.37,2013-02-19 10:24:00,
2013-02-19 02:25:00,45.9,35.2,29.97,SSW,213,3.5,3.5,66,0.00,SCT,,0.00,WeatherDisplay:10.37,2013-02-19 10:25:00,
2013-02-19 02:26:00,45.9,35.2,29.97,South,188,4.6,4.6,66,0.00,SCT,,0.00,WeatherDisplay:10.37,2013-02-19 10:26:00,
2013-02-19 02:28:00,45.9,35.2,29.97,South,188,2.3,0.0,66,0.00,SCT,,0.00,WeatherDisplay:10.37,2013-02-19 10:28:00,
2013-02-19 02:29:00,45.9,35.6,29.97,South,188,0.0,0.0,67,0.00,SCT,,0.00,WeatherDisplay:10.37,2013-02-19 10:29:00,
2013-02-19 02:32:00,45.8,35.5,29.96,SSW,201,3.5,3.5,67,0.00,SCT,,0.00,WeatherDisplay:10.37,2013-02-19 10:32:00,
2013-02-19 02:34:00,45.7,35.7,29.97,South,184,2.3,2.3,68,0.00,SCT,,0.00,WeatherDisplay:10.37,2013-02-19 10:34:00,
2013-02-19 02:35:00,45.7,35.4,29.96,SSW,199,0.0,4.0,67,0.00,SCT,,0.00,WeatherDisplay:10.37,2013-02-19 10:35:00,
2013-02-19 02:37:00,45.7,35.7,29.97,WSW,244,4.6,4.6,68,0.00,SCT,,0.00,WeatherDisplay:10.37,2013-02-19 10:37:00,
2013-02-19 02:39:00,45.6,35.6,29.96,SW,225,2.3,2.3,68,0.00,SCT,,0.00,WeatherDisplay:10.37,2013-02-19 10:39:00,
2013-02-19 02:40:00,45.5,35.5,29.96,SW,225,0.0,0.1,68,0.00,SCT,,0.00,WeatherDisplay:10.37,2013-02-19 10:40:00,
2013-02-19 02:42:00,45.5,35.5,29.96,SW,218,2.3,2.3,68,0.00,SCT,,0.00,WeatherDisplay:10.37,2013-02-19 10:42:00,
2013-02-19 02:44:00,45.4,35.5,29.96,WSW,256,3.5,3.5,68,0.00,SCT,,0.00,WeatherDisplay:10.37,2013-02-19 10:44:00,
2013-02-19 02:45:00,45.4,35.5,29.96,WSW,256,1.2,0.0,68,0.00,SCT,,0.00,WeatherDisplay:10.37,2013-02-19 10:45:00,
2013-02-19 02:48:00,45.3,35.4,29.95,WSW,253,0.0,0.0,68,0.00,SCT,,0.00,WeatherDisplay:10.37,2013-02-19 10:48:00,
2013-02-19 02:49:00,45.2,35.3,29.96,WSW,253,0.0,0.0,68,0.00,SCT,,0.00,WeatherDisplay:10.37,2013-02-19 10:49:00,
2013-02-19 02:50:00,45.2,35.3,29.96,WSW,240,0.0,2.0,68,0.00,SCT,,0.00,WeatherDisplay:10.37,2013-02-19 10:50:00,
2013-02-19 02:53:00,45.1,35.2,29.95,West,262,5.8,5.8,68,0.00,SCT,,0.00,WeatherDisplay:10.37,2013-02-19 10:53:00,
2013-02-19 02:54:00,45.1,35.2,29.96,WSW,251,5.8,5.8,68,0.00,SCT,,0.00,WeatherDisplay:10.37,2013-02-19 10:54:00,
2013-02-19 02:55:00,45.0,35.1,29.96,WSW,251,5.8,5.8,68,0.00,SCT,,0.00,WeatherDisplay:10.37,2013-02-19 10:55:00,
2013-02-19 02:59:00,44.9,35.3,29.95,WSW,249,2.3,2.3,69,0.00,SCT,,0.00,WeatherDisplay:10.37,2013-02-19 10:59:00,
2013-02-19 03:00:00,44.9,35.3,29.95,WSW,244,0.0,5.0,69,0.00,SCT,,0.00,WeatherDisplay:10.37,2013-02-19 11:00:00,
2013-02-19 03:05:00,44.8,35.2,29.95,South,191,0.0,0.0,69,0.00,SCT,,0.00,WeatherDisplay:10.37,2013-02-19 11:05:00,
2013-02-19 03:06:00,44.7,35.1,29.95,SW,233,0.0,0.1,69,0.00,SCT,,0.00,WeatherDisplay:10.37,2013-02-19 11:06:00,
2013-02-19 03:10:00,44.7,35.1,29.96,SW,235,0.0,0.0,69,0.00,SCT,,0.00,WeatherDisplay:10.37,2013-02-19 11:10:00,
2013-02-19 03:11:00,44.7,35.1,29.95,SW,235,0.0,0.0,69,0.00,SCT,,0.00,WeatherDisplay:10.37,2013-02-19 11:11:00,
2013-02-19 03:12:00,44.7,35.1,29.96,SW,235,0.0,0.0,69,0.00,SCT,,0.00,WeatherDisplay:10.37,2013-02-19 11:12:00,
2013-02-19 03:15:00,44.6,35.1,29.95,West,269,2.3,2.3,69,0.00,SCT,,0.00,WeatherDisplay:10.37,2013-02-19 11:15:00,
2013-02-19 03:16:00,44.6,35.1,29.95,West,269,0.0,0.0,69,0.00,SCT,,0.00,WeatherDisplay:10.37,2013-02-19 11:16:00,
2013-02-19 03:17:00,44.6,35.1,29.95,West,269,1.0,1.0,69,0.00,SCT,,0.00,WeatherDisplay:10.37,2013-02-19 11:17:00,
2013-02-19 03:21:00,44.5,35.0,29.95,West,269,0.0,0.0,69,0.00,SCT,,0.00,WeatherDisplay:10.37,2013-02-19 11:21:00,
2013-02-19 03:22:00,44.5,35.3,29.95,West,269,0.0,0.0,70,0.00,SCT,,0.00,WeatherDisplay:10.37,2013-02-19 11:22:00,
2013-02-19 03:27:00,44.5,35.0,29.95,West,269,0.0,0.0,69,0.00,SCT,,0.00,WeatherDisplay:10.37,2013-02-19 11:27:00,
2013-02-19 03:28:00,44.6,35.1,29.95,West,269,0.0,0.0,69,0.00,SCT,,0.00,WeatherDisplay:10.37,2013-02-19 11:28:00,
2013-02-19 03:29:00,44.6,35.1,29.95,West,269,0.0,0.0,69,0.00,SCT,,0.00,WeatherDisplay:10.37,2013-02-19 11:29:00,
2013-02-19 03:32:00,44.5,35.3,29.95,West,269,1.2,0.0,70,0.00,SCT,,0.00,WeatherDisplay:10.37,2013-02-19 11:32:00,
2013-02-19 03:34:00,44.5,35.3,29.95,West,269,0.0,0.0,70,0.00,SCT,,0.00,WeatherDisplay:10.37,2013-02-19 11:34:00,
2013-02-19 03:37:00,44.5,35.3,29.95,WSW,243,1.2,1.2,70,0.00,SCT,,0.00,WeatherDisplay:10.37,2013-02-19 11:37:00,
2013-02-19 03:39:00,44.5,35.3,29.95,WSW,243,0.0,0.0,70,0.00,SCT,,0.00,WeatherDisplay:10.37,2013-02-19 11:39:00,
2013-02-19 03:42:00,44.5,35.3,29.95,WSW,243,0.0,0.0,70,0.00,SCT,,0.00,WeatherDisplay:10.37,2013-02-19 11:42:00,
2013-02-19 03:43:00,44.5,35.3,29.95,WSW,243,0.0,0.0,70,0.00,SCT,,0.00,WeatherDisplay:10.37,2013-02-19 11:43:00,
2013-02-19 03:44:00,44.6,35.4,29.95,WSW,243,0.0,0.0,70,0.00,SCT,,0.00,WeatherDisplay:10.37,2013-02-19 11:44:00,
2013-02-19 03:47:00,44.6,35.4,29.95,WSW,243,0.0,0.0,70,0.00,SCT,,0.00,WeatherDisplay:10.37,2013-02-19 11:47:00,
2013-02-19 03:49:00,44.6,35.4,29.95,WSW,243,0.0,0.0,70,0.00,SCT,,0.00,WeatherDisplay:10.37,2013-02-19 11:49:00,
2013-02-19 03:50:00,44.6,35.4,29.95,WSW,243,0.0,0.0,70,0.00,SCT,,0.00,WeatherDisplay:10.37,2013-02-19 11:50:00,
2013-02-19 03:52:00,44.6,35.4,29.95,WSW,243,1.2,1.2,70,0.00,SCT,,0.00,WeatherDisplay:10.37,2013-02-19 11:52:00,
2013-02-19 03:55:00,44.6,35.8,29.95,WSW,243,0.0,1.0,71,0.00,SCT,,0.00,WeatherDisplay:10.37,2013-02-19 11:55:00,
2013-02-19 03:58:00,44.7,35.9,29.95,WSW,243,1.2,0.0,71,0.00,SCT,,0.00,WeatherDisplay:10.37,2013-02-19 11:58:00,
2013-02-19 04:00:00,44.7,35.9,29.95,WSW,257,2.3,2.3,71,0.00,SCT,,0.00,WeatherDisplay:10.37,2013-02-19 12:00:00,
2013-02-19 04:01:00,44.7,35.9,29.94,West,261,2.3,2.3,71,0.00,SCT,,0.00,WeatherDisplay:10.37,2013-02-19 12:01:00,
2013-02-19 04:05:00,44.7,36.2,29.94,SW,220,1.2,1.2,72,0.00,SCT,,0.00,WeatherDisplay:10.37,2013-02-19 12:05:00,
2013-02-19 04:06:00,44.7,35.9,29.94,SW,220,1.2,0.0,71,0.00,SCT,,0.00,WeatherDisplay:10.37,2013-02-19 12:06:00,
2013-02-19 04:07:00,44.7,35.9,29.94,SW,220,0.0,0.0,71,0.00,SCT,,0.00,WeatherDisplay:10.37,2013-02-19 12:07:00,
2013-02-19 04:10:00,44.7,36.2,29.94,SSE,164,3.5,3.5,72,0.00,SCT,,0.00,WeatherDisplay:10.37,2013-02-19 12:10:00,
2013-02-19 04:11:00,44.7,36.2,29.94,SSE,164,3.5,3.5,72,0.00,SCT,,0.00,WeatherDisplay:10.37,2013-02-19 12:11:00,
2013-02-19 04:12:00,44.7,36.2,29.94,SSW,201,3.5,3.5,72,0.00,SCT,,0.00,WeatherDisplay:10.37,2013-02-19 12:12:00,
2013-02-19 04:16:00,44.7,36.2,29.94,West,264,2.3,0.0,72,0.00,SCT,,0.00,WeatherDisplay:10.37,2013-02-19 12:16:00,
2013-02-19 04:17:00,44.6,36.1,29.94,SW,225,1.2,1.2,72,0.00,SCT,,0.00,WeatherDisplay:10.37,2013-02-19 12:17:00,
2013-02-19 04:18:00,44.6,36.1,29.94,SW,225,1.2,1.2,72,0.00,SCT,,0.00,WeatherDisplay:10.37,2013-02-19 12:18:00,
2013-02-19 04:22:00,44.7,36.6,29.94,South,176,3.5,3.5,73,0.00,SCT,,0.00,WeatherDisplay:10.37,2013-02-19 12:22:00,
2013-02-19 04:23:00,44.7,36.6,29.94,SSW,212,1.2,1.2,73,0.00,SCT,,0.00,WeatherDisplay:10.37,2013-02-19 12:23:00,
2013-02-19 04:25:00,44.7,36.6,29.94,SSW,195,1.0,4.0,73,0.00,SCT,,0.00,WeatherDisplay:10.37,2013-02-19 12:25:00,
2013-02-19 04:27:00,44.7,36.9,29.94,SSW,212,6.9,6.9,74,0.00,SCT,,0.00,WeatherDisplay:10.37,2013-02-19 12:27:00,
2013-02-19 04:28:00,44.7,36.9,29.94,SW,214,7.0,7.0,74,0.00,SCT,,0.00,WeatherDisplay:10.37,2013-02-19 12:28:00,
2013-02-19 04:29:00,44.7,36.9,29.94,SSW,209,6.9,6.9,74,0.00,SCT,,0.00,WeatherDisplay:10.37,2013-02-19 12:29:00,
2013-02-19 04:30:00,44.7,37.3,29.94,SSW,210,6.9,6.9,75,0.00,SCT,,0.00,WeatherDisplay:10.37,2013-02-19 12:30:00,
2013-02-19 04:33:00,44.7,37.3,29.94,South,187,4.0,4.0,75,0.00,SCT,,0.00,WeatherDisplay:10.37,2013-02-19 12:33:00,
2013-02-19 04:34:00,44.7,37.3,29.94,SSW,195,4.6,4.6,75,0.00,SCT,,0.00,WeatherDisplay:10.37,2013-02-19 12:34:00,
2013-02-19 04:35:00,44.6,37.2,29.94,SW,215,3.5,3.5,75,0.00,SCT,,0.00,WeatherDisplay:10.37,2013-02-19 12:35:00,
2013-02-19 04:39:00,44.6,37.2,29.94,SW,229,4.6,4.6,75,0.00,SCT,,0.00,WeatherDisplay:10.37,2013-02-19 12:39:00,
2013-02-19 04:40:00,44.6,37.2,29.94,SSW,193,1.2,1.2,75,0.00,SCT,,0.00,WeatherDisplay:10.37,2013-02-19 12:40:00,
2013-02-19 04:44:00,44.5,37.1,29.94,SSW,208,5.0,5.0,75,0.00,SCT,,0.00,WeatherDisplay:10.37,2013-02-19 12:44:00,
2013-02-19 04:45:00,44.5,37.1,29.94,SW,219,3.5,3.5,75,0.00,SCT,,0.00,WeatherDisplay:10.37,2013-02-19 12:45:00,
2013-02-19 04:46:00,44.5,37.1,29.94,SW,220,2.0,2.0,75,0.00,SCT,,0.00,WeatherDisplay:10.37,2013-02-19 12:46:00,
2013-02-19 04:49:00,44.5,37.1,29.94,SSW,203,1.2,1.2,75,0.00,SCT,,0.00,WeatherDisplay:10.37,2013-02-19 12:49:00,
2013-02-19 04:50:00,44.5,37.1,29.94,SSW,200,1.2,1.2,75,0.00,SCT,,0.00,WeatherDisplay:10.37,2013-02-19 12:50:00,
2013-02-19 04:51:00,44.5,37.1,29.94,SSW,200,2.3,2.3,75,0.00,SCT,,0.00,WeatherDisplay:10.37,2013-02-19 12:51:00,
2013-02-19 04:55:00,44.5,37.1,29.94,SSW,211,0.0,3.0,75,0.00,SCT,,0.00,WeatherDisplay:10.37,2013-02-19 12:55:00,
2013-02-19 04:56:00,44.5,37.1,29.94,SW,224,3.5,3.5,75,0.00,SCT,,0.00,WeatherDisplay:10.37,2013-02-19 12:56:00,
2013-02-19 04:58:00,44.5,37.1,29.94,SW,225,2.3,2.3,75,0.00,SCT,,0.00,WeatherDisplay:10.37,2013-02-19 12:58:00,
2013-02-19 05:00:00,44.5,37.1,29.93,SW,225,1.2,1.2,75,0.00,SCT,,0.00,WeatherDisplay:10.37,2013-02-19 13:00:00,
2013-02-19 05:01:00,44.5,37.1,29.93,SW,225,1.2,0.0,75,0.00,SCT,,0.00,WeatherDisplay:10.37,2013-02-19 13:01:00,
2013-02-19 05:03:00,44.5,37.1,29.93,SW,221,3.5,3.5,75,0.00,SCT,,0.00,WeatherDisplay:10.37,2013-02-19 13:03:00,
2013-02-19 05:06:00,44.5,37.1,29.94,South,190,1.2,0.0,75,0.00,SCT,,0.00,WeatherDisplay:10.37,2013-02-19 13:06:00,
2013-02-19 05:08:00,44.5,36.7,29.94,South,191,1.2,0.0,74,0.00,SCT,,0.00,WeatherDisplay:10.37,2013-02-19 13:08:00,
2013-02-19 05:10:00,44.5,36.7,29.94,SSW,204,2.3,0.0,74,0.00,SCT,,0.00,WeatherDisplay:10.37,2013-02-19 13:10:00,
2013-02-19 05:11:00,44.5,37.1,29.93,SE,130,1.2,1.2,75,0.00,SCT,,0.00,WeatherDisplay:10.37,2013-02-19 13:11:00,
2013-02-19 05:12:00,44.5,37.1,29.94,East,98,1.2,1.2,75,0.00,SCT,,0.00,WeatherDisplay:10.37,2013-02-19 13:12:00,
2013-02-19 05:13:00,44.6,36.8,29.94,East,88,2.3,2.3,74,0.00,SCT,,0.00,WeatherDisplay:10.37,2013-02-19 13:13:00,
2013-02-19 05:15:00,44.6,37.2,29.93,South,176,4.6,4.6,75,0.00,SCT,,0.00,WeatherDisplay:10.37,2013-02-19 13:15:00,
2013-02-19 05:17:00,44.6,37.2,29.94,South,176,0.0,0.0,75,0.00,SCT,,0.00,WeatherDisplay:10.37,2013-02-19 13:17:00,
2013-02-19 05:18:00,44.6,37.2,29.94,South,176,0.0,0.0,75,0.00,SCT,,0.00,WeatherDisplay:10.37,2013-02-19 13:18:00,
2013-02-19 05:20:00,44.6,37.5,29.93,South,176,1.0,0.0,76,0.00,SCT,,0.00,WeatherDisplay:10.37,2013-02-19 13:20:00,
2013-02-19 05:23:00,44.5,37.1,29.93,South,176,3.5,3.5,75,0.00,SCT,,0.00,WeatherDisplay:10.37,2013-02-19 13:23:00,
2013-02-19 05:24:00,44.5,37.1,29.93,SW,214,3.5,3.5,75,0.00,SCT,,0.00,WeatherDisplay:10.37,2013-02-19 13:24:00,
2013-02-19 05:26:00,44.5,37.1,29.93,South,169,2.3,2.3,75,0.00,SCT,,0.00,WeatherDisplay:10.37,2013-02-19 13:26:00,
2013-02-19 05:29:00,44.5,37.1,29.93,East,95,3.5,3.5,75,0.00,SCT,,0.00,WeatherDisplay:10.37,2013-02-19 13:29:00,
2013-02-19 05:31:00,44.5,37.1,29.93,ESE,117,3.5,3.5,75,0.00,SCT,,0.00,WeatherDisplay:10.37,2013-02-19 13:31:00,
2013-02-19 05:34:00,44.5,37.1,29.93,South,177,3.5,3.5,75,0.00,SCT,,0.00,WeatherDisplay:10.37,2013-02-19 13:34:00,
2013-02-19 05:35:00,44.5,37.1,29.93,SSE,152,1.0,7.0,75,0.00,SCT,,0.00,WeatherDisplay:10.37,2013-02-19 13:35:00,
2013-02-19 05:36:00,44.5,37.1,29.93,South,183,6.9,6.9,75,0.00,SCT,,0.00,WeatherDisplay:10.37,2013-02-19 13:36:00,
2013-02-19 05:39:00,44.5,37.1,29.93,SE,144,5.8,5.8,75,0.00,SCT,,0.00,WeatherDisplay:10.37,2013-02-19 13:39:00,
2013-02-19 05:40:00,44.5,37.1,29.93,SSE,155,4.0,4.0,75,0.00,SCT,,0.00,WeatherDisplay:10.37,2013-02-19 13:40:00,
2013-02-19 05:43:00,44.5,36.7,29.93,ESE,121,3.5,3.5,74,0.00,SCT,,0.00,WeatherDisplay:10.37,2013-02-19 13:43:00,
2013-02-19 05:44:00,44.5,36.7,29.93,ESE,115,3.5,3.5,74,0.00,SCT,,0.00,WeatherDisplay:10.37,2013-02-19 13:44:00,
2013-02-19 05:45:00,44.5,36.7,29.93,SSE,151,4.6,4.6,74,0.00,SCT,,0.00,WeatherDisplay:10.37,2013-02-19 13:45:00,
2013-02-19 05:48:00,44.5,36.7,29.93,ESE,115,4.0,4.0,74,0.00,SCT,,0.00,WeatherDisplay:10.37,2013-02-19 13:48:00,
2013-02-19 05:49:00,44.5,36.7,29.93,ENE,77,4.0,4.0,74,0.00,SCT,,0.00,WeatherDisplay:10.37,2013-02-19 13:49:00,
2013-02-19 05:50:00,44.5,36.7,29.92,South,188,3.5,3.5,74,0.00,SCT,,0.00,WeatherDisplay:10.37,2013-02-19 13:50:00,
2013-02-19 05:51:00,44.5,36.7,29.92,ESE,110,6.0,6.0,74,0.00,SCT,,0.00,WeatherDisplay:10.37,2013-02-19 13:51:00,
2013-02-19 05:53:00,44.5,36.4,29.92,ENE,73,3.5,3.5,73,0.00,SCT,,0.00,WeatherDisplay:10.37,2013-02-19 13:53:00,
2013-02-19 05:55:00,44.5,36.7,29.92,SSE,152,3.5,3.5,74,0.00,SCT,,0.00,WeatherDisplay:10.37,2013-02-19 13:55:00,
2013-02-19 05:56:00,44.5,36.7,29.92,SE,142,3.5,3.5,74,0.00,SCT,,0.00,WeatherDisplay:10.37,2013-02-19 13:56:00,
2013-02-19 05:58:00,44.5,36.4,29.92,East,95,4.6,4.6,73,0.00,SCT,,0.00,WeatherDisplay:10.37,2013-02-19 13:58:00,
2013-02-19 06:00:00,44.5,36.4,29.92,SE,125,4.0,4.0,73,0.00,SCT,,0.00,WeatherDisplay:10.37,2013-02-19 14:00:00,
2013-02-19 06:01:00,44.5,36.7,29.92,SE,140,8.1,8.1,74,0.00,SCT,,0.00,WeatherDisplay:10.37,2013-02-19 14:01:00,
2013-02-19 06:03:00,44.5,36.7,29.92,SE,127,2.3,2.3,74,0.00,SCT,,0.00,WeatherDisplay:10.37,2013-02-19 14:03:00,
2013-02-19 06:05:00,44.5,36.4,29.92,ESE,117,4.6,4.6,73,0.00,SCT,,0.00,WeatherDisplay:10.37,2013-02-19 14:05:00,
2013-02-19 06:07:00,44.5,36.4,29.92,SSE,149,3.5,3.5,73,0.00,SCT,,0.00,WeatherDisplay:10.37,2013-02-19 14:07:00,
2013-02-19 06:08:00,44.6,36.5,29.92,SE,127,3.5,3.5,73,0.00,SCT,,0.00,WeatherDisplay:10.37,2013-02-19 14:08:00,
2013-02-19 06:10:00,44.6,36.5,29.92,SSW,198,2.3,2.3,73,0.00,SCT,,0.00,WeatherDisplay:10.37,2013-02-19 14:10:00,
2013-02-19 06:11:00,44.6,36.5,29.92,SSE,150,2.3,2.3,73,0.00,SCT,,0.00,WeatherDisplay:10.37,2013-02-19 14:11:00,
2013-02-19 06:12:00,44.6,36.5,29.92,ENE,71,2.3,2.3,73,0.00,SCT,,0.00,WeatherDisplay:10.37,2013-02-19 14:12:00,
2013-02-19 06:15:00,44.7,36.6,29.92,ESE,114,4.0,4.0,73,0.00,SCT,,0.00,WeatherDisplay:10.37,2013-02-19 14:15:00,
2013-02-19 06:16:00,44.7,36.6,29.92,ESE,123,4.0,4.0,73,0.00,SCT,,0.00,WeatherDisplay:10.37,2013-02-19 14:16:00,
2013-02-19 06:17:00,44.7,36.6,29.91,East,101,3.5,3.5,73,0.00,SCT,,0.00,WeatherDisplay:10.37,2013-02-19 14:17:00,
2013-02-19 06:20:00,44.7,36.6,29.91,East,81,3.5,3.5,73,0.00,SCT,,0.00,WeatherDisplay:10.37,2013-02-19 14:20:00,
2013-02-19 06:21:00,44.7,36.6,29.92,NE,36,3.5,3.5,73,0.00,SCT,,0.00,WeatherDisplay:10.37,2013-02-19 14:21:00,
2013-02-19 06:23:00,44.7,36.6,29.91,NE,40,3.5,3.5,73,0.00,SCT,,0.00,WeatherDisplay:10.37,2013-02-19 14:23:00,
2013-02-19 06:26:00,44.7,36.6,29.91,East,80,4.6,4.6,73,0.00,SCT,,0.00,WeatherDisplay:10.37,2013-02-19 14:26:00,
2013-02-19 06:28:00,44.7,36.6,29.91,SSW,212,3.5,3.5,73,0.00,SCT,,0.00,WeatherDisplay:10.37,2013-02-19 14:28:00,
2013-02-19 06:31:00,44.7,36.9,29.91,ENE,65,5.8,5.8,74,0.00,SCT,,0.00,WeatherDisplay:10.37,2013-02-19 14:31:00,
2013-02-19 06:33:00,44.7,36.9,29.91,ENE,74,3.5,3.5,74,0.00,SCT,,0.00,WeatherDisplay:10.37,2013-02-19 14:33:00,
2013-02-19 06:36:00,44.7,37.6,29.91,East,101,4.6,4.6,76,0.00,SCT,,0.00,WeatherDisplay:10.37,2013-02-19 14:36:00,
2013-02-19 06:38:00,44.7,37.6,29.91,SE,129,3.5,3.5,76,0.00,SCT,,0.00,WeatherDisplay:10.37,2013-02-19 14:38:00,
2013-02-19 06:42:00,44.6,37.5,29.90,SSW,200,3.5,3.5,76,0.00,SCT,,0.00,WeatherDisplay:10.37,2013-02-19 14:42:00,
2013-02-19 06:43:00,44.6,37.8,29.91,SSW,200,2.3,2.3,77,0.01,RA,,0.01,WeatherDisplay:10.37,2013-02-19 14:43:00,
2013-02-19 06:44:00,44.6,37.8,29.91,SSW,200,2.3,0.0,77,0.01,RA,,0.01,WeatherDisplay:10.37,2013-02-19 14:44:00,
2013-02-19 06:47:00,44.5,37.7,29.91,SSW,200,2.3,2.3,77,0.01,RA,,0.01,WeatherDisplay:10.37,2013-02-19 14:47:00,
2013-02-19 06:49:00,44.5,37.7,29.91,NE,46,2.3,2.3,77,0.01,RA,,0.01,WeatherDisplay:10.37,2013-02-19 14:49:00,
2013-02-19 06:53:00,44.5,38.1,29.91,SSW,193,3.5,3.5,78,0.01,SCT,,0.01,WeatherDisplay:10.37,2013-02-19 14:53:00,
2013-02-19 06:54:00,44.5,38.1,29.91,SSW,193,3.5,3.5,78,0.01,SCT,,0.01,WeatherDisplay:10.37,2013-02-19 14:54:00,
2013-02-19 06:55:00,44.5,38.1,29.91,SSW,192,1.2,1.2,78,0.02,RA,,0.02,WeatherDisplay:10.37,2013-02-19 14:55:00,
2013-02-19 06:58:00,44.4,38.0,29.91,South,188,4.6,4.6,78,0.02,RA,,0.02,WeatherDisplay:10.37,2013-02-19 14:58:00,
2013-02-19 07:00:00,44.4,38.3,29.91,South,189,1.0,5.0,79,0.00,RA,,0.02,WeatherDisplay:10.37,2013-02-19 15:00:00,
2013-02-19 07:01:00,44.4,38.0,29.91,SSE,151,2.3,2.3,78,0.02,RA,,0.02,WeatherDisplay:10.37,2013-02-19 15:01:00,
2013-02-19 07:02:00,44.4,38.0,29.91,SE,141,2.3,2.3,78,0.02,RA,,0.02,WeatherDisplay:10.37,2013-02-19 15:02:00,
2013-02-19 07:04:00,44.4,38.3,29.91,SSW,209,3.0,3.0,79,0.02,RA,,0.02,WeatherDisplay:10.37,2013-02-19 15:04:00,
2013-02-19 07:05:00,44.4,38.3,29.91,South,184,2.0,4.0,79,0.00,SCT,,0.02,WeatherDisplay:10.37,2013-02-19 15:05:00,
2013-02-19 07:06:00,44.4,38.3,29.91,ESE,116,3.5,3.5,79,0.02,SCT,,0.03,WeatherDisplay:10.37,2013-02-19 15:06:00,
2013-02-19 07:07:00,44.4,38.3,29.91,ESE,121,2.3,2.3,79,0.03,RA,,0.03,WeatherDisplay:10.37,2013-02-19 15:07:00,
2013-02-19 07:10:00,44.3,38.2,29.91,SSE,150,3.5,3.5,79,0.03,RA,,0.03,WeatherDisplay:10.37,2013-02-19 15:10:00,
2013-02-19 07:11:00,44.3,38.2,29.90,SE,145,8.1,8.1,79,0.03,RA,,0.03,WeatherDisplay:10.37,2013-02-19 15:11:00,
2013-02-19 07:12:00,44.3,38.2,29.90,ESE,113,8.1,8.1,79,0.03,RA,,0.03,WeatherDisplay:10.37,2013-02-19 15:12:00,
2013-02-19 07:15:00,44.2,38.1,29.90,East,87,5.8,5.8,79,0.03,RA,,0.03,WeatherDisplay:10.37,2013-02-19 15:15:00,
2013-02-19 07:16:00,44.2,38.1,29.90,South,179,3.5,3.5,79,0.03,SCT,,0.03,WeatherDisplay:10.37,2013-02-19 15:16:00,
2013-02-19 07:17:00,44.2,38.1,29.90,SSW,209,6.0,6.0,79,0.03,SCT,,0.03,WeatherDisplay:10.37,2013-02-19 15:17:00,
2013-02-19 07:20:00,44.2,38.1,29.90,SSW,205,2.3,2.3,79,0.03,SCT,,0.03,WeatherDisplay:10.37,2013-02-19 15:20:00,
2013-02-19 07:21:00,44.2,38.1,29.90,NE,36,6.9,6.9,79,0.03,SCT,,0.03,WeatherDisplay:10.37,2013-02-19 15:21:00,
2013-02-19 07:22:00,44.2,38.1,29.90,East,96,6.9,6.9,79,0.03,SCT,,0.03,WeatherDisplay:10.37,2013-02-19 15:22:00,
2013-02-19 07:26:00,44.1,38.0,29.90,NE,48,4.6,4.8,79,0.03,SCT,,0.03,WeatherDisplay:10.37,2013-02-19 15:26:00,
2013-02-19 07:27:00,44.1,38.0,29.90,SSE,162,3.5,3.5,79,0.03,SCT,,0.03,WeatherDisplay:10.37,2013-02-19 15:27:00,
2013-02-19 07:31:00,44.0,38.2,29.90,SSE,154,3.5,3.5,80,0.03,SCT,,0.03,WeatherDisplay:10.37,2013-02-19 15:31:00,
2013-02-19 07:32:00,44.0,38.2,29.89,SE,141,4.0,4.0,80,0.03,SCT,,0.03,WeatherDisplay:10.37,2013-02-19 15:32:00,
2013-02-19 07:37:00,44.0,38.2,29.89,East,99,6.9,6.9,80,0.03,SCT,,0.03,WeatherDisplay:10.37,2013-02-19 15:37:00,
2013-02-19 07:38:00,44.0,38.2,29.89,SE,142,7.0,7.0,80,0.03,SCT,,0.03,WeatherDisplay:10.37,2013-02-19 15:38:00,
2013-02-19 07:42:00,44.0,38.2,29.89,South,175,6.9,6.9,80,0.03,SCT,,0.03,WeatherDisplay:10.37,2013-02-19 15:42:00,
2013-02-19 07:43:00,44.1,38.3,29.90,SSE,162,6.0,6.0,80,0.02,SCT,,0.03,WeatherDisplay:10.37,2013-02-19 15:43:00,
2013-02-19 07:47:00,44.1,38.3,29.89,ENE,70,4.6,4.6,80,0.02,SCT,,0.03,WeatherDisplay:10.37,2013-02-19 15:47:00,
2013-02-19 07:48:00,44.1,38.3,29.89,SE,141,3.5,3.5,80,0.02,SCT,,0.03,WeatherDisplay:10.37,2013-02-19 15:48:00,
2013-02-19 07:52:00,44.2,38.4,29.89,South,170,4.6,4.6,80,0.02,SCT,,0.03,WeatherDisplay:10.37,2013-02-19 15:52:00,
2013-02-19 07:53:00,44.2,38.4,29.89,SE,142,4.6,4.6,80,0.02,SCT,,0.03,WeatherDisplay:10.37,2013-02-19 15:53:00,
2013-02-19 07:54:00,44.2,38.4,29.89,ESE,119,6.9,6.9,80,0.02,SCT,,0.03,WeatherDisplay:10.37,2013-02-19 15:54:00,
2013-02-19 07:57:00,44.2,38.4,29.89,SE,132,5.8,5.8,80,0.01,SCT,,0.03,WeatherDisplay:10.37,2013-02-19 15:57:00,
2013-02-19 07:59:00,44.2,38.4,29.89,SE,129,2.3,2.3,80,0.01,SCT,,0.03,WeatherDisplay:10.37,2013-02-19 15:59:00,
2013-02-19 08:00:00,44.3,38.5,29.89,East,96,6.0,6.0,80,0.01,SCT,,0.03,WeatherDisplay:10.37,2013-02-19 16:00:00,
2013-02-19 08:04:00,44.3,38.5,29.89,East,83,3.5,3.5,80,0.01,SCT,,0.03,WeatherDisplay:10.37,2013-02-19 16:04:00,
2013-02-19 08:05:00,44.3,38.5,29.89,ESE,116,2.0,6.0,80,0.00,SCT,,0.03,WeatherDisplay:10.37,2013-02-19 16:05:00,
2013-02-19 08:08:00,44.4,38.6,29.89,SSE,164,4.0,4.0,80,0.00,SCT,,0.03,WeatherDisplay:10.37,2013-02-19 16:08:00,
2013-02-19 08:10:00,44.4,38.3,29.89,NE,53,5.8,5.8,79,0.00,SCT,,0.03,WeatherDisplay:10.37,2013-02-19 16:10:00,
2013-02-19 08:11:00,44.4,38.3,29.88,SW,236,3.5,3.5,79,0.00,SCT,,0.03,WeatherDisplay:10.37,2013-02-19 16:11:00,
2013-02-19 08:13:00,44.4,38.3,29.89,ENE,68,6.9,6.9,79,0.00,SCT,,0.03,WeatherDisplay:10.37,2013-02-19 16:13:00,
2013-02-19 08:15:00,44.5,38.7,29.89,SE,138,6.9,6.9,80,0.00,SCT,,0.03,WeatherDisplay:10.37,2013-02-19 16:15:00,
2013-02-19 08:16:00,44.5,38.7,29.88,ENE,63,3.5,3.5,80,0.00,SCT,,0.03,WeatherDisplay:10.37,2013-02-19 16:16:00,
2013-02-19 08:19:00,44.5,38.7,29.88,ESE,109,6.0,6.0,80,0.00,SCT,,0.03,WeatherDisplay:10.37,2013-02-19 16:19:00,
2013-02-19 08:21:00,44.5,38.7,29.88,ESE,122,8.1,8.1,80,0.00,SCT,,0.03,WeatherDisplay:10.37,2013-02-19 16:21:00,
2013-02-19 08:23:00,44.5,38.7,29.88,SSE,148,6.9,6.9,80,0.00,SCT,,0.03,WeatherDisplay:10.37,2013-02-19 16:23:00,
2013-02-19 08:25:00,44.6,38.8,29.88,SE,141,6.9,6.9,80,0.00,SCT,,0.03,WeatherDisplay:10.37,2013-02-19 16:25:00,
2013-02-19 08:26:00,44.6,38.8,29.88,ESE,112,5.8,5.8,80,0.00,SCT,,0.03,WeatherDisplay:10.37,2013-02-19 16:26:00,
2013-02-19 08:28:00,44.6,38.8,29.88,East,85,5.8,5.8,80,0.00,SCT,,0.03,WeatherDisplay:10.37,2013-02-19 16:28:00,
2013-02-19 08:30:00,44.7,38.9,29.88,SSE,163,4.6,4.6,80,0.00,SCT,,0.03,WeatherDisplay:10.37,2013-02-19 16:30:00,
2013-02-19 08:31:00,44.7,38.9,29.88,South,183,4.6,4.6,80,0.00,SCT,,0.03,WeatherDisplay:10.37,2013-02-19 16:31:00,
2013-02-19 08:33:00,44.7,38.9,29.88,SSE,148,9.2,9.2,80,0.00,SCT,,0.03,WeatherDisplay:10.37,2013-02-19 16:33:00,
2013-02-19 08:35:00,44.8,38.7,29.88,East,90,3.5,3.5,79,0.00,SCT,,0.03,WeatherDisplay:10.37,2013-02-19 16:35:00,
2013-02-19 08:37:00,44.8,38.7,29.88,SSE,158,4.6,4.6,79,0.00,SCT,,0.03,WeatherDisplay:10.37,2013-02-19 16:37:00,
2013-02-19 08:38:00,44.9,38.8,29.88,SE,135,3.5,3.5,79,0.00,SCT,,0.03,WeatherDisplay:10.37,2013-02-19 16:38:00,
2013-02-19 08:41:00,45.1,39.0,29.88,SE,132,4.0,4.0,79,0.00,SCT,,0.03,WeatherDisplay:10.37,2013-02-19 16:41:00,
2013-02-19 08:42:00,45.1,39.0,29.88,SSE,163,4.6,4.6,79,0.00,SCT,,0.03,WeatherDisplay:10.37,2013-02-19 16:42:00,
2013-02-19 08:43:00,45.1,39.0,29.88,SE,145,4.6,4.6,79,0.00,SCT,,0.03,WeatherDisplay:10.37,2013-02-19 16:43:00,
2013-02-19 08:44:00,45.2,39.1,29.88,SSE,165,4.6,4.6,79,0.00,SCT,,0.03,WeatherDisplay:10.37,2013-02-19 16:44:00,
2013-02-19 08:47:00,45.2,39.1,29.88,East,98,5.8,5.8,79,0.00,SCT,,0.03,WeatherDisplay:10.37,2013-02-19 16:47:00,
2013-02-19 08:48:00,45.2,38.7,29.88,East,85,5.8,5.8,78,0.00,SCT,,0.03,WeatherDisplay:10.37,2013-02-19 16:48:00,
2013-02-19 08:49:00,45.3,39.2,29.88,ESE,123,8.1,8.1,79,0.00,SCT,,0.03,WeatherDisplay:10.37,2013-02-19 16:49:00,
2013-02-19 08:52:00,45.4,38.9,29.87,East,86,6.0,6.0,78,0.00,SCT,,0.03,WeatherDisplay:10.37,2013-02-19 16:52:00,
2013-02-19 08:53:00,45.4,38.9,29.87,ESE,102,6.9,6.9,78,0.00,SCT,,0.03,WeatherDisplay:10.37,2013-02-19 16:53:00,
2013-02-19 08:54:00,45.4,38.9,29.87,East,87,9.2,9.2,78,0.00,SCT,,0.03,WeatherDisplay:10.37,2013-02-19 16:54:00,
2013-02-19 08:56:00,45.5,38.7,29.87,SSE,148,8.1,8.1,77,0.00,SCT,,0.03,WeatherDisplay:10.37,2013-02-19 16:56:00,
2013-02-19 08:58:00,45.5,38.7,29.87,ESE,115,11.5,11.5,77,0.00,SCT,,0.03,WeatherDisplay:10.37,2013-02-19 16:58:00,
2013-02-19 08:59:00,45.5,38.7,29.86,ENE,77,11.5,11.5,77,0.00,SCT,,0.03,WeatherDisplay:10.37,2013-02-19 16:59:00,
2013-02-19 09:03:00,45.5,38.7,29.86,SE,130,6.9,6.9,77,0.00,SCT,,0.03,WeatherDisplay:10.37,2013-02-19 17:03:00,
2013-02-19 09:04:00,45.6,38.8,29.86,SSE,148,6.9,6.9,77,0.00,SCT,,0.03,WeatherDisplay:10.37,2013-02-19 17:04:00,
2013-02-19 09:06:00,45.6,38.8,29.86,ESE,110,4.6,4.6,77,0.00,SCT,,0.03,WeatherDisplay:10.37,2013-02-19 17:06:00,
2013-02-19 09:09:00,45.7,38.9,29.86,SSE,156,4.6,4.6,77,0.00,SCT,,0.03,WeatherDisplay:10.37,2013-02-19 17:09:00,
2013-02-19 09:12:00,45.8,39.0,29.86,ESE,103,3.5,3.5,77,0.00,SCT,,0.03,WeatherDisplay:10.37,2013-02-19 17:12:00,
2013-02-19 09:15:00,46.0,39.2,29.85,SSE,160,4.6,4.6,77,0.00,SCT,,0.03,WeatherDisplay:10.37,2013-02-19 17:15:00,
2013-02-19 09:16:00,46.1,39.3,29.85,SSW,204,3.5,3.5,77,0.00,SCT,,0.03,WeatherDisplay:10.37,2013-02-19 17:16:00,
2013-02-19 09:17:00,46.2,39.1,29.85,South,171,3.5,3.5,76,0.00,SCT,,0.03,WeatherDisplay:10.37,2013-02-19 17:17:00,
2013-02-19 09:20:00,46.5,39.7,29.85,South,171,4.6,4.6,77,0.00,SCT,,0.03,WeatherDisplay:10.37,2013-02-19 17:20:00,
2013-02-19 09:21:00,46.6,39.8,29.85,SSW,209,4.6,4.6,77,0.00,SCT,,0.03,WeatherDisplay:10.37,2013-02-19 17:21:00,
2013-02-19 09:22:00,46.7,39.5,29.86,East,93,12.0,12.0,76,0.00,SCT,,0.03,WeatherDisplay:10.37,2013-02-19 17:22:00,
2013-02-19 09:25:00,46.7,39.5,29.85,SE,141,6.9,6.9,76,0.00,SCT,,0.03,WeatherDisplay:10.37,2013-02-19 17:25:00,
2013-02-19 09:26:00,46.7,39.2,29.85,SW,226,3.5,3.5,75,0.00,SCT,,0.03,WeatherDisplay:10.37,2013-02-19 17:26:00,
2013-02-19 09:27:00,46.7,39.9,29.85,South,185,3.5,3.5,77,0.00,SCT,,0.04,WeatherDisplay:10.37,2013-02-19 17:27:00,
2013-02-19 09:30:00,46.7,39.9,29.85,East,96,6.9,6.9,77,0.01,RA,,0.04,WeatherDisplay:10.37,2013-02-19 17:30:00,
2013-02-19 09:31:00,46.6,39.8,29.85,East,94,4.6,4.6,77,0.01,RA,,0.05,WeatherDisplay:10.37,2013-02-19 17:31:00,
2013-02-19 09:33:00,46.6,40.1,29.85,SSW,195,6.0,6.0,78,0.02,RA,,0.05,WeatherDisplay:10.37,2013-02-19 17:33:00,
2013-02-19 09:34:00,46.6,40.1,29.85,ESE,109,6.9,6.9,78,0.02,RA,,0.05,WeatherDisplay:10.37,2013-02-19 17:34:00,
2013-02-19 09:35:00,46.6,39.8,29.85,SE,143,3.0,9.0,77,0.02,RA,,0.05,WeatherDisplay:10.37,2013-02-19 17:35:00,
2013-02-19 09:36:00,46.7,40.2,29.85,SE,135,6.9,6.9,78,0.02,RA,,0.05,WeatherDisplay:10.37,2013-02-19 17:36:00,
2013-02-19 09:38:00,46.7,40.2,29.84,South,187,5.8,5.8,78,0.02,RA,,0.05,WeatherDisplay:10.37,2013-02-19 17:38:00,
2013-02-19 09:39:00,46.7,39.9,29.84,SSE,166,5.8,5.8,77,0.02,RA,,0.05,WeatherDisplay:10.37,2013-02-19 17:39:00,
2013-02-19 09:40:00,46.8,40.0,29.84,East,100,3.5,3.5,77,0.02,RA,,0.05,WeatherDisplay:10.37,2013-02-19 17:40:00,
2013-02-19 09:41:00,46.9,40.1,29.84,South,170,5.8,5.8,77,0.02,RA,,0.05,WeatherDisplay:10.37,2013-02-19 17:41:00,
2013-02-19 09:44:00,47.1,40.3,29.84,North,359,10.0,10.0,77,0.02,SCT,,0.05,WeatherDisplay:10.37,2013-02-19 17:44:00,
2013-02-19 09:45:00,47.1,39.9,29.84,South,191,8.1,8.1,76,0.02,SCT,,0.05,WeatherDisplay:10.37,2013-02-19 17:45:00,
2013-02-19 09:47:00,47.1,39.9,29.84,South,178,8.1,8.1,76,0.02,SCT,,0.05,WeatherDisplay:10.37,2013-02-19 17:47:00,
2013-02-19 09:49:00,47.1,40.3,29.84,SSW,196,4.6,4.6,77,0.02,SCT,,0.05,WeatherDisplay:10.37,2013-02-19 17:49:00,
2013-02-19 09:50:00,47.1,40.3,29.84,SE,129,2.0,8.0,77,0.00,SCT,,0.05,WeatherDisplay:10.37,2013-02-19 17:50:00,
2013-02-19 09:52:00,47.0,40.2,29.85,SW,224,3.5,3.5,77,0.03,RA,,0.06,WeatherDisplay:10.37,2013-02-19 17:52:00,
2013-02-19 09:54:00,46.9,40.1,29.85,SSE,168,5.8,5.8,77,0.03,RA,,0.06,WeatherDisplay:10.37,2013-02-19 17:54:00,
2013-02-19 09:55:00,46.8,40.0,29.85,ESE,117,6.9,6.9,77,0.04,RA,,0.07,WeatherDisplay:10.37,2013-02-19 17:55:00,
2013-02-19 09:57:00,46.7,39.9,29.85,ESE,102,6.0,6.0,77,0.04,RA,,0.07,WeatherDisplay:10.37,2013-02-19 17:57:00,
2013-02-19 09:59:00,46.5,39.7,29.85,South,189,6.9,6.9,77,0.05,RA,,0.09,WeatherDisplay:10.37,2013-02-19 17:59:00,
2013-02-19 10:00:00,46.5,39.7,29.85,SE,139,4.6,4.6,77,0.06,RA,,0.09,WeatherDisplay:10.37,2013-02-19 18:00:00,
2013-02-19 10:02:00,46.3,39.8,29.85,ESE,109,6.0,6.0,78,0.07,RA,,0.10,WeatherDisplay:10.37,2013-02-19 18:02:00,
2013-02-19 10:03:00,46.3,39.8,29.85,SSE,158,4.0,4.6,78,0.07,RA,,0.10,WeatherDisplay:10.37,2013-02-19 18:03:00,
2013-02-19 10:04:00,46.1,39.6,29.85,South,173,5.8,5.8,78,0.08,RA,,0.11,WeatherDisplay:10.37,2013-02-19 18:04:00,
2013-02-19 10:05:00,46.1,39.3,29.85,South,190,13.8,13.8,77,0.08,RA,,0.12,WeatherDisplay:10.37,2013-02-19 18:05:00,
2013-02-19 10:07:00,45.9,38.8,29.85,SSE,160,12.7,12.7,76,0.09,RA,,0.13,WeatherDisplay:10.37,2013-02-19 18:07:00,
2013-02-19 10:08:00,45.9,38.8,29.85,SSW,196,12.7,12.7,76,0.09,RA,,0.13,WeatherDisplay:10.37,2013-02-19 18:08:00,
2013-02-19 10:09:00,45.8,39.0,29.85,SSE,159,8.1,8.1,77,0.11,RA,,0.14,WeatherDisplay:10.37,2013-02-19 18:09:00,
2013-02-19 10:11:00,45.7,38.9,29.85,SE,139,11.5,11.5,77,0.11,RA,,0.15,WeatherDisplay:10.37,2013-02-19 18:11:00,
2013-02-19 10:12:00,45.5,38.7,29.85,SSW,192,8.1,8.1,77,0.12,RA,,0.15,WeatherDisplay:10.37,2013-02-19 18:12:00,
2013-02-19 10:13:00,45.5,39.0,29.85,SW,221,8.1,8.1,78,0.12,RA,,0.16,WeatherDisplay:10.37,2013-02-19 18:13:00,
2013-02-19 10:17:00,45.3,38.8,29.85,SW,229,11.5,11.5,78,0.15,RA,,0.19,WeatherDisplay:10.37,2013-02-19 18:17:00,
2013-02-19 10:18:00,45.2,38.4,29.86,South,180,4.6,4.6,77,0.16,RA,,0.19,WeatherDisplay:10.37,2013-02-19 18:18:00,
2013-02-19 10:23:00,45.1,38.6,29.86,SW,219,4.6,4.6,78,0.18,RA,,0.22,WeatherDisplay:10.37,2013-02-19 18:23:00,
2013-02-19 10:25:00,45.0,38.6,29.86,South,188,1.0,7.0,78,0.01,RA,,0.24,WeatherDisplay:10.37,2013-02-19 18:25:00,
2013-02-19 10:28:00,44.8,38.0,29.85,SSW,198,9.2,9.2,77,0.22,RA,,0.26,WeatherDisplay:10.37,2013-02-19 18:28:00,
2013-02-19 10:30:00,44.8,38.4,29.85,South,190,3.5,3.5,78,0.23,RA,,0.27,WeatherDisplay:10.37,2013-02-19 18:30:00,
2013-02-19 10:33:00,44.7,37.9,29.86,SW,217,8.1,8.1,77,0.24,RA,,0.30,WeatherDisplay:10.37,2013-02-19 18:33:00,
2013-02-19 10:34:00,44.7,37.9,29.86,SSW,202,8.1,8.1,77,0.24,RA,,0.30,WeatherDisplay:10.37,2013-02-19 18:34:00,
2013-02-19 10:35:00,44.6,37.8,29.85,South,190,6.9,6.9,77,0.25,RA,,0.31,WeatherDisplay:10.37,2013-02-19 18:35:00,
2013-02-19 10:39:00,44.5,38.4,29.86,SW,225,2.3,2.3,79,0.27,RA,,0.32,WeatherDisplay:10.37,2013-02-19 18:39:00,
2013-02-19 10:40:00,44.5,38.4,29.86,SW,225,2.3,2.3,79,0.27,RA,,0.32,WeatherDisplay:10.37,2013-02-19 18:40:00,
2013-02-19 10:44:00,44.4,38.0,29.86,SSW,202,3.5,3.5,78,0.29,RA,,0.34,WeatherDisplay:10.37,2013-02-19 18:44:00,
2013-02-19 10:45:00,44.4,38.3,29.86,ENE,57,3.5,3.5,79,0.29,RA,,0.34,WeatherDisplay:10.37,2013-02-19 18:45:00,
2013-02-19 10:46:00,44.4,38.0,29.86,SSW,198,6.0,6.0,78,0.29,RA,,0.35,WeatherDisplay:10.37,2013-02-19 18:46:00,
2013-02-19 10:50:00,44.4,38.0,29.86,West,259,3.5,3.5,78,0.30,RA,,0.36,WeatherDisplay:10.37,2013-02-19 18:50:00,
2013-02-19 10:51:00,44.4,38.3,29.86,SSW,200,2.3,2.3,79,0.31,RA,,0.36,WeatherDisplay:10.37,2013-02-19 18:51:00,
2013-02-19 10:55:00,44.4,38.3,29.85,SW,229,1.0,4.0,79,0.03,RA,,0.37,WeatherDisplay:10.37,2013-02-19 18:55:00,
2013-02-19 10:56:00,44.4,38.3,29.85,SSW,208,3.5,3.5,79,0.30,RA,,0.37,WeatherDisplay:10.37,2013-02-19 18:56:00,
2013-02-19 10:57:00,44.4,38.3,29.85,SW,223,1.2,1.2,79,0.30,RA,,0.37,WeatherDisplay:10.37,2013-02-19 18:57:00,
2013-02-19 11:00:00,44.5,38.4,29.85,SSW,203,1.0,5.0,79,0.00,RA,,0.38,WeatherDisplay:10.37,2013-02-19 19:00:00,
2013-02-19 11:01:00,44.5,38.7,29.85,WSW,251,3.5,3.5,80,0.29,RA,,0.38,WeatherDisplay:10.37,2013-02-19 19:01:00,
2013-02-19 11:03:00,44.5,38.4,29.85,WSW,253,0.0,0.0,79,0.29,RA,,0.39,WeatherDisplay:10.37,2013-02-19 19:03:00,
2013-02-19 11:05:00,44.5,38.7,29.85,WSW,244,6.0,6.0,80,0.28,RA,,0.39,WeatherDisplay:10.37,2013-02-19 19:05:00,
2013-02-19 11:06:00,44.5,38.7,29.85,South,172,8.1,8.1,80,0.28,RA,,0.40,WeatherDisplay:10.37,2013-02-19 19:06:00,
2013-02-19 11:15:00,44.6,38.5,29.86,West,266,1.2,1.2,79,0.28,RA,,0.43,WeatherDisplay:10.37,2013-02-19 19:15:00,
2013-02-19 11:16:00,44.6,38.5,29.86,West,266,1.2,1.2,79,0.28,RA,,0.43,WeatherDisplay:10.37,2013-02-19 19:16:00,
2013-02-19 11:20:00,44.4,37.6,29.85,WSW,257,4.6,4.6,77,0.25,RA,,0.44,WeatherDisplay:10.37,2013-02-19 19:20:00,
2013-02-19 11:21:00,44.4,37.6,29.85,WSW,257,4.6,4.6,77,0.25,RA,,0.44,WeatherDisplay:10.37,2013-02-19 19:21:00,
2013-02-19 11:26:00,44.3,37.2,29.85,West,259,3.5,3.5,76,0.22,RA,,0.45,WeatherDisplay:10.37,2013-02-19 19:26:00,
2013-02-19 11:27:00,44.3,37.5,29.85,WSW,254,3.5,3.5,77,0.22,RA,,0.45,WeatherDisplay:10.37,2013-02-19 19:27:00,
2013-02-19 11:32:00,44.3,37.5,29.85,West,259,3.5,3.5,77,0.18,RA,,0.45,WeatherDisplay:10.37,2013-02-19 19:32:00,
2013-02-19 11:33:00,44.4,37.6,29.85,West,259,3.5,3.5,77,0.18,RA,,0.45,WeatherDisplay:10.37,2013-02-19 19:33:00,